sensor_id;sensor_type;location;lat;lon;timestamp;temperature;humidity
2721;DHT22;1368;49.484;11.112;2022-07-29T00:02:02;21.60;71.50
2721;DHT22;1368;49.484;11.112;2022-07-29T00:04:27;21.60;71.90
2721;DHT22;1368;49.484;11.112;2022-07-29T00:06:53;21.60;71.90
2721;DHT22;1368;49.484;11.112;2022-07-29T00:09:18;21.50;71.90
2721;DHT22;1368;49.484;11.112;2022-07-29T00:11:44;21.60;71.60
2721;DHT22;1368;49.484;11.112;2022-07-29T00:14:09;21.60;71.70
2721;DHT22;1368;49.484;11.112;2022-07-29T00:16:35;21.60;71.70
2721;DHT22;1368;49.484;11.112;2022-07-29T00:19:01;22.20;72.20
2721;DHT22;1368;49.484;11.112;2022-07-29T00:21:27;21.50;71.70
2721;DHT22;1368;49.484;11.112;2022-07-29T00:23:52;21.40;71.90
2721;DHT22;1368;49.484;11.112;2022-07-29T00:26:18;21.50;72.00
2721;DHT22;1368;49.484;11.112;2022-07-29T00:28:43;21.50;72.00
2721;DHT22;1368;49.484;11.112;2022-07-29T00:31:09;21.40;71.90
2721;DHT22;1368;49.484;11.112;2022-07-29T00:33:34;21.40;71.90
2721;DHT22;1368;49.484;11.112;2022-07-29T00:36:00;21.40;71.80
2721;DHT22;1368;49.484;11.112;2022-07-29T00:38:26;21.40;71.80
2721;DHT22;1368;49.484;11.112;2022-07-29T00:40:51;21.50;71.60
2721;DHT22;1368;49.484;11.112;2022-07-29T00:43:17;21.70;72.10
2721;DHT22;1368;49.484;11.112;2022-07-29T00:45:43;21.50;71.90
2721;DHT22;1368;49.484;11.112;2022-07-29T00:48:09;21.50;71.80
2721;DHT22;1368;49.484;11.112;2022-07-29T00:50:35;21.40;71.90
2721;DHT22;1368;49.484;11.112;2022-07-29T00:53:03;21.70;72.30
2721;DHT22;1368;49.484;11.112;2022-07-29T00:55:29;21.40;71.90
2721;DHT22;1368;49.484;11.112;2022-07-29T00:57:55;21.40;72.10
2721;DHT22;1368;49.484;11.112;2022-07-29T01:00:24;21.40;72.00
2721;DHT22;1368;49.484;11.112;2022-07-29T01:02:50;21.30;72.10
2721;DHT22;1368;49.484;11.112;2022-07-29T01:05:21;21.40;72.00
2721;DHT22;1368;49.484;11.112;2022-07-29T01:07:49;21.40;71.80
2721;DHT22;1368;49.484;11.112;2022-07-29T01:10:16;21.20;72.00
2721;DHT22;1368;49.484;11.112;2022-07-29T01:12:44;21.30;72.20
2721;DHT22;1368;49.484;11.112;2022-07-29T01:15:11;21.30;71.80
2721;DHT22;1368;49.484;11.112;2022-07-29T01:26:31;21.40;71.60
2721;DHT22;1368;49.484;11.112;2022-07-29T01:29:21;21.90;71.00
2721;DHT22;1368;49.484;11.112;2022-07-29T01:32:03;22.00;70.40
2721;DHT22;1368;49.484;11.112;2022-07-29T01:34:43;22.20;70.00
2721;DHT22;1368;49.484;11.112;2022-07-29T01:37:18;22.30;69.90
2721;DHT22;1368;49.484;11.112;2022-07-29T01:39:47;22.50;69.40
2721;DHT22;1368;49.484;11.112;2022-07-29T01:42:44;22.20;69.80
2721;DHT22;1368;49.484;11.112;2022-07-29T01:48:05;22.30;69.20
2721;DHT22;1368;49.484;11.112;2022-07-29T01:50:40;22.20;70.10
2721;DHT22;1368;49.484;11.112;2022-07-29T01:53:10;22.10;70.20
2721;DHT22;1368;49.484;11.112;2022-07-29T01:55:44;22.10;70.50
2721;DHT22;1368;49.484;11.112;2022-07-29T01:58:11;22.20;69.90
2721;DHT22;1368;49.484;11.112;2022-07-29T02:00:38;22.20;69.70
2721;DHT22;1368;49.484;11.112;2022-07-29T02:03:09;22.30;70.90
2721;DHT22;1368;49.484;11.112;2022-07-29T02:05:35;22.40;71.60
2721;DHT22;1368;49.484;11.112;2022-07-29T02:08:03;21.90;70.80
2721;DHT22;1368;49.484;11.112;2022-07-29T02:10:31;22.00;70.50
2721;DHT22;1368;49.484;11.112;2022-07-29T02:12:58;22.20;70.10
2721;DHT22;1368;49.484;11.112;2022-07-29T02:15:27;22.40;69.70
2721;DHT22;1368;49.484;11.112;2022-07-29T02:18:04;22.30;69.80
2721;DHT22;1368;49.484;11.112;2022-07-29T02:20:30;22.10;70.30
2721;DHT22;1368;49.484;11.112;2022-07-29T02:22:58;21.60;71.50
2721;DHT22;1368;49.484;11.112;2022-07-29T02:25:26;21.40;72.00
2721;DHT22;1368;49.484;11.112;2022-07-29T02:27:53;21.10;72.40
2721;DHT22;1368;49.484;11.112;2022-07-29T02:30:21;21.00;72.80
2721;DHT22;1368;49.484;11.112;2022-07-29T02:32:48;20.80;73.20
2721;DHT22;1368;49.484;11.112;2022-07-29T02:35:16;20.80;73.70
2721;DHT22;1368;49.484;11.112;2022-07-29T02:37:43;20.80;73.50
2721;DHT22;1368;49.484;11.112;2022-07-29T02:40:11;20.70;73.80
2721;DHT22;1368;49.484;11.112;2022-07-29T02:42:41;20.80;73.50
2721;DHT22;1368;49.484;11.112;2022-07-29T02:45:08;21.20;72.90
2721;DHT22;1368;49.484;11.112;2022-07-29T02:50:12;21.20;72.40
2721;DHT22;1368;49.484;11.112;2022-07-29T02:52:43;21.10;72.70
2721;DHT22;1368;49.484;11.112;2022-07-29T02:55:25;21.20;72.20
2721;DHT22;1368;49.484;11.112;2022-07-29T02:57:59;21.10;72.70
2721;DHT22;1368;49.484;11.112;2022-07-29T03:00:28;21.00;72.80
2721;DHT22;1368;49.484;11.112;2022-07-29T03:02:56;20.90;73.20
2721;DHT22;1368;49.484;11.112;2022-07-29T03:05:24;20.80;73.70
2721;DHT22;1368;49.484;11.112;2022-07-29T03:08:00;20.90;73.50
2721;DHT22;1368;49.484;11.112;2022-07-29T03:10:27;20.80;73.50
2721;DHT22;1368;49.484;11.112;2022-07-29T03:12:55;20.70;73.80
2721;DHT22;1368;49.484;11.112;2022-07-29T03:15:22;20.60;74.10
2721;DHT22;1368;49.484;11.112;2022-07-29T03:17:48;20.40;74.70
2721;DHT22;1368;49.484;11.112;2022-07-29T03:20:14;20.40;75.10
2721;DHT22;1368;49.484;11.112;2022-07-29T03:22:42;20.40;74.70
2721;DHT22;1368;49.484;11.112;2022-07-29T03:25:10;20.70;74.30
2721;DHT22;1368;49.484;11.112;2022-07-29T03:27:36;20.80;73.80
2721;DHT22;1368;49.484;11.112;2022-07-29T03:30:02;20.80;73.80
2721;DHT22;1368;49.484;11.112;2022-07-29T03:32:28;20.80;73.40
2721;DHT22;1368;49.484;11.112;2022-07-29T03:34:54;20.80;74.00
2721;DHT22;1368;49.484;11.112;2022-07-29T03:37:19;20.90;73.50
2721;DHT22;1368;49.484;11.112;2022-07-29T03:39:45;20.90;73.40
2721;DHT22;1368;49.484;11.112;2022-07-29T03:42:15;20.80;73.50
2721;DHT22;1368;49.484;11.112;2022-07-29T03:44:44;20.50;74.10
2721;DHT22;1368;49.484;11.112;2022-07-29T03:47:11;20.40;74.50
2721;DHT22;1368;49.484;11.112;2022-07-29T03:49:39;20.40;74.80
2721;DHT22;1368;49.484;11.112;2022-07-29T03:52:05;20.30;74.40
2721;DHT22;1368;49.484;11.112;2022-07-29T03:54:31;20.40;75.20
2721;DHT22;1368;49.484;11.112;2022-07-29T03:56:59;20.50;74.90
2721;DHT22;1368;49.484;11.112;2022-07-29T03:59:27;20.50;74.90
2721;DHT22;1368;49.484;11.112;2022-07-29T04:01:53;20.60;74.50
2721;DHT22;1368;49.484;11.112;2022-07-29T04:04:21;20.50;74.70
2721;DHT22;1368;49.484;11.112;2022-07-29T04:06:47;20.40;75.40
2721;DHT22;1368;49.484;11.112;2022-07-29T04:09:12;20.40;75.20
2721;DHT22;1368;49.484;11.112;2022-07-29T04:11:39;20.30;75.30
2721;DHT22;1368;49.484;11.112;2022-07-29T04:14:05;20.40;75.10
2721;DHT22;1368;49.484;11.112;2022-07-29T04:16:30;20.50;75.20
2721;DHT22;1368;49.484;11.112;2022-07-29T04:18:56;20.50;75.40
2721;DHT22;1368;49.484;11.112;2022-07-29T04:21:22;20.30;75.50
2721;DHT22;1368;49.484;11.112;2022-07-29T04:23:47;20.30;75.80
2721;DHT22;1368;49.484;11.112;2022-07-29T04:26:19;20.30;76.30
2721;DHT22;1368;49.484;11.112;2022-07-29T04:28:46;20.40;75.70
2721;DHT22;1368;49.484;11.112;2022-07-29T04:31:12;20.50;75.80
2721;DHT22;1368;49.484;11.112;2022-07-29T04:33:38;20.40;76.10
2721;DHT22;1368;49.484;11.112;2022-07-29T04:36:04;20.40;76.00
2721;DHT22;1368;49.484;11.112;2022-07-29T04:38:30;20.40;76.30
2721;DHT22;1368;49.484;11.112;2022-07-29T04:40:56;20.40;76.60
2721;DHT22;1368;49.484;11.112;2022-07-29T04:43:21;20.40;76.20
2721;DHT22;1368;49.484;11.112;2022-07-29T04:45:47;20.30;76.30
2721;DHT22;1368;49.484;11.112;2022-07-29T04:48:12;20.40;76.30
2721;DHT22;1368;49.484;11.112;2022-07-29T04:50:38;20.40;76.10
2721;DHT22;1368;49.484;11.112;2022-07-29T04:53:05;20.50;76.30
2721;DHT22;1368;49.484;11.112;2022-07-29T04:55:30;20.30;76.60
2721;DHT22;1368;49.484;11.112;2022-07-29T04:57:56;20.30;76.90
2721;DHT22;1368;49.484;11.112;2022-07-29T05:00:22;20.40;77.10
2721;DHT22;1368;49.484;11.112;2022-07-29T05:02:49;20.50;76.50
2721;DHT22;1368;49.484;11.112;2022-07-29T05:05:14;20.50;76.40
2721;DHT22;1368;49.484;11.112;2022-07-29T05:07:40;20.40;76.60
2721;DHT22;1368;49.484;11.112;2022-07-29T05:10:06;20.50;77.00
2721;DHT22;1368;49.484;11.112;2022-07-29T05:12:32;20.70;76.50
2721;DHT22;1368;49.484;11.112;2022-07-29T05:14:57;21.00;75.90
2721;DHT22;1368;49.484;11.112;2022-07-29T05:17:23;21.10;75.30
2721;DHT22;1368;49.484;11.112;2022-07-29T05:19:49;21.10;75.80
2721;DHT22;1368;49.484;11.112;2022-07-29T05:22:19;21.40;74.90
2721;DHT22;1368;49.484;11.112;2022-07-29T05:24:45;21.80;74.90
2721;DHT22;1368;49.484;11.112;2022-07-29T05:27:11;22.90;74.00
2721;DHT22;1368;49.484;11.112;2022-07-29T05:29:36;23.10;72.30
2721;DHT22;1368;49.484;11.112;2022-07-29T05:32:03;23.40;72.30
2721;DHT22;1368;49.484;11.112;2022-07-29T05:34:28;24.40;71.00
2721;DHT22;1368;49.484;11.112;2022-07-29T05:36:54;25.20;68.20
2721;DHT22;1368;49.484;11.112;2022-07-29T05:39:20;25.70;67.80
2721;DHT22;1368;49.484;11.112;2022-07-29T05:41:46;26.50;66.50
2721;DHT22;1368;49.484;11.112;2022-07-29T05:44:11;27.30;63.50
2721;DHT22;1368;49.484;11.112;2022-07-29T05:46:39;27.30;63.00
2721;DHT22;1368;49.484;11.112;2022-07-29T05:49:04;27.60;62.60
2721;DHT22;1368;49.484;11.112;2022-07-29T05:51:32;27.90;61.90
2721;DHT22;1368;49.484;11.112;2022-07-29T05:53:57;28.10;61.20
2721;DHT22;1368;49.484;11.112;2022-07-29T05:56:24;28.50;62.30
2721;DHT22;1368;49.484;11.112;2022-07-29T05:58:49;29.30;59.00
2721;DHT22;1368;49.484;11.112;2022-07-29T06:01:15;29.40;59.00
2721;DHT22;1368;49.484;11.112;2022-07-29T06:03:41;29.60;58.00
2721;DHT22;1368;49.484;11.112;2022-07-29T06:06:07;30.00;57.00
2721;DHT22;1368;49.484;11.112;2022-07-29T06:08:33;30.20;57.20
2721;DHT22;1368;49.484;11.112;2022-07-29T06:10:59;30.30;56.90
2721;DHT22;1368;49.484;11.112;2022-07-29T06:13:25;30.60;56.90
2721;DHT22;1368;49.484;11.112;2022-07-29T06:15:51;31.00;56.70
2721;DHT22;1368;49.484;11.112;2022-07-29T06:18:16;31.60;56.10
2721;DHT22;1368;49.484;11.112;2022-07-29T06:20:42;31.90;55.20
2721;DHT22;1368;49.484;11.112;2022-07-29T06:23:08;31.90;55.10
2721;DHT22;1368;49.484;11.112;2022-07-29T06:25:35;32.10;55.10
2721;DHT22;1368;49.484;11.112;2022-07-29T06:28:02;32.30;54.70
2721;DHT22;1368;49.484;11.112;2022-07-29T06:30:28;32.70;53.60
2721;DHT22;1368;49.484;11.112;2022-07-29T06:32:54;32.60;53.90
2721;DHT22;1368;49.484;11.112;2022-07-29T06:35:21;32.80;54.40
2721;DHT22;1368;49.484;11.112;2022-07-29T06:37:47;33.10;53.50
2721;DHT22;1368;49.484;11.112;2022-07-29T06:40:12;32.50;54.00
2721;DHT22;1368;49.484;11.112;2022-07-29T06:43:01;32.40;53.90
2721;DHT22;1368;49.484;11.112;2022-07-29T06:45:27;32.40;53.80
2721;DHT22;1368;49.484;11.112;2022-07-29T06:47:52;32.60;54.60
2721;DHT22;1368;49.484;11.112;2022-07-29T06:50:18;32.20;55.10
2721;DHT22;1368;49.484;11.112;2022-07-29T06:52:44;32.50;54.70
2721;DHT22;1368;49.484;11.112;2022-07-29T06:55:09;33.00;54.40
2721;DHT22;1368;49.484;11.112;2022-07-29T06:57:35;32.90;54.30
2721;DHT22;1368;49.484;11.112;2022-07-29T07:00:00;33.50;54.00
2721;DHT22;1368;49.484;11.112;2022-07-29T07:02:26;33.80;53.90
2721;DHT22;1368;49.484;11.112;2022-07-29T07:04:52;33.80;53.30
2721;DHT22;1368;49.484;11.112;2022-07-29T07:07:17;34.00;53.60
2721;DHT22;1368;49.484;11.112;2022-07-29T07:09:43;33.70;53.70
2721;DHT22;1368;49.484;11.112;2022-07-29T07:12:08;33.90;53.80
2721;DHT22;1368;49.484;11.112;2022-07-29T07:14:34;34.60;53.40
2721;DHT22;1368;49.484;11.112;2022-07-29T07:17:00;34.60;52.90
2721;DHT22;1368;49.484;11.112;2022-07-29T07:19:26;34.50;52.70
2721;DHT22;1368;49.484;11.112;2022-07-29T07:21:53;34.10;53.30
2721;DHT22;1368;49.484;11.112;2022-07-29T07:24:19;34.20;53.00
2721;DHT22;1368;49.484;11.112;2022-07-29T07:26:44;34.00;53.40
2721;DHT22;1368;49.484;11.112;2022-07-29T07:29:10;33.50;53.80
2721;DHT22;1368;49.484;11.112;2022-07-29T07:31:37;33.10;54.20
2721;DHT22;1368;49.484;11.112;2022-07-29T07:34:03;33.20;54.30
2721;DHT22;1368;49.484;11.112;2022-07-29T07:36:28;33.50;54.30
2721;DHT22;1368;49.484;11.112;2022-07-29T07:38:54;34.00;53.70
2721;DHT22;1368;49.484;11.112;2022-07-29T07:41:20;34.20;53.80
2721;DHT22;1368;49.484;11.112;2022-07-29T07:43:46;34.60;53.10
2721;DHT22;1368;49.484;11.112;2022-07-29T07:46:12;34.20;53.30
2721;DHT22;1368;49.484;11.112;2022-07-29T07:48:38;34.00;53.70
2721;DHT22;1368;49.484;11.112;2022-07-29T07:51:03;33.90;53.70
2721;DHT22;1368;49.484;11.112;2022-07-29T07:53:29;33.70;53.90
2721;DHT22;1368;49.484;11.112;2022-07-29T07:55:55;34.20;53.60
2721;DHT22;1368;49.484;11.112;2022-07-29T07:58:21;34.30;53.40
2721;DHT22;1368;49.484;11.112;2022-07-29T08:00:47;33.70;54.30
2721;DHT22;1368;49.484;11.112;2022-07-29T08:03:12;33.80;53.80
2721;DHT22;1368;49.484;11.112;2022-07-29T08:05:39;33.70;54.10
2721;DHT22;1368;49.484;11.112;2022-07-29T08:08:05;33.30;54.90
2721;DHT22;1368;49.484;11.112;2022-07-29T08:10:31;32.80;55.50
2721;DHT22;1368;49.484;11.112;2022-07-29T08:13:15;32.40;55.40
2721;DHT22;1368;49.484;11.112;2022-07-29T08:15:41;31.30;56.80
2721;DHT22;1368;49.484;11.112;2022-07-29T08:18:08;31.40;57.80
2721;DHT22;1368;49.484;11.112;2022-07-29T08:20:35;31.60;57.20
2721;DHT22;1368;49.484;11.112;2022-07-29T08:23:01;31.80;56.70
2721;DHT22;1368;49.484;11.112;2022-07-29T08:25:27;32.40;56.20
2721;DHT22;1368;49.484;11.112;2022-07-29T08:27:53;32.30;56.10
2721;DHT22;1368;49.484;11.112;2022-07-29T08:30:18;32.00;56.80
2721;DHT22;1368;49.484;11.112;2022-07-29T08:32:44;32.60;56.30
2721;DHT22;1368;49.484;11.112;2022-07-29T08:35:10;33.00;55.80
2721;DHT22;1368;49.484;11.112;2022-07-29T08:37:35;32.80;55.90
2721;DHT22;1368;49.484;11.112;2022-07-29T08:40:01;32.90;56.10
2721;DHT22;1368;49.484;11.112;2022-07-29T08:42:26;33.60;55.70
2721;DHT22;1368;49.484;11.112;2022-07-29T08:44:53;34.30;54.60
2721;DHT22;1368;49.484;11.112;2022-07-29T08:47:19;34.60;54.80
2721;DHT22;1368;49.484;11.112;2022-07-29T08:49:44;35.20;54.00
2721;DHT22;1368;49.484;11.112;2022-07-29T08:52:14;35.60;53.60
2721;DHT22;1368;49.484;11.112;2022-07-29T08:54:43;36.60;53.10
2721;DHT22;1368;49.484;11.112;2022-07-29T08:57:12;37.00;52.20
2721;DHT22;1368;49.484;11.112;2022-07-29T08:59:40;37.40;51.50
2721;DHT22;1368;49.484;11.112;2022-07-29T09:02:16;38.00;51.00
2721;DHT22;1368;49.484;11.112;2022-07-29T09:04:44;38.30;49.80
2721;DHT22;1368;49.484;11.112;2022-07-29T09:07:14;38.40;50.80
2721;DHT22;1368;49.484;11.112;2022-07-29T09:09:40;39.10;49.80
2721;DHT22;1368;49.484;11.112;2022-07-29T09:12:05;39.80;49.50
2721;DHT22;1368;49.484;11.112;2022-07-29T09:14:33;40.10;48.00
2721;DHT22;1368;49.484;11.112;2022-07-29T09:16:59;40.00;47.50
2721;DHT22;1368;49.484;11.112;2022-07-29T09:19:35;39.60;47.80
2721;DHT22;1368;49.484;11.112;2022-07-29T09:22:04;39.50;47.60
2721;DHT22;1368;49.484;11.112;2022-07-29T09:24:41;39.00;48.00
2721;DHT22;1368;49.484;11.112;2022-07-29T09:27:19;38.30;48.60
2721;DHT22;1368;49.484;11.112;2022-07-29T09:29:46;38.60;48.50
2721;DHT22;1368;49.484;11.112;2022-07-29T09:32:12;37.90;48.60
2721;DHT22;1368;49.484;11.112;2022-07-29T09:34:38;38.00;48.00
2721;DHT22;1368;49.484;11.112;2022-07-29T09:37:04;38.50;48.20
2721;DHT22;1368;49.484;11.112;2022-07-29T09:39:38;38.60;48.40
2721;DHT22;1368;49.484;11.112;2022-07-29T09:42:11;38.80;47.70
2721;DHT22;1368;49.484;11.112;2022-07-29T09:44:48;38.40;48.80
2721;DHT22;1368;49.484;11.112;2022-07-29T09:47:16;38.50;48.70
2721;DHT22;1368;49.484;11.112;2022-07-29T09:49:58;38.20;48.90
2721;DHT22;1368;49.484;11.112;2022-07-29T09:52:26;36.90;49.70
2721;DHT22;1368;49.484;11.112;2022-07-29T09:54:51;36.30;50.90
2721;DHT22;1368;49.484;11.112;2022-07-29T09:57:24;36.50;51.30
2721;DHT22;1368;49.484;11.112;2022-07-29T10:02:31;37.00;50.00
2721;DHT22;1368;49.484;11.112;2022-07-29T10:04:58;36.20;51.40
2721;DHT22;1368;49.484;11.112;2022-07-29T10:07:24;35.80;52.20
2721;DHT22;1368;49.484;11.112;2022-07-29T10:09:54;34.80;52.80
2721;DHT22;1368;49.484;11.112;2022-07-29T10:12:20;34.00;54.40
2721;DHT22;1368;49.484;11.112;2022-07-29T10:14:46;33.30;56.00
2721;DHT22;1368;49.484;11.112;2022-07-29T10:17:12;33.20;55.70
2721;DHT22;1368;49.484;11.112;2022-07-29T10:19:38;33.00;56.00
2721;DHT22;1368;49.484;11.112;2022-07-29T10:22:07;33.10;56.10
2721;DHT22;1368;49.484;11.112;2022-07-29T10:24:34;32.70;56.90
2721;DHT22;1368;49.484;11.112;2022-07-29T10:27:02;32.20;57.70
2721;DHT22;1368;49.484;11.112;2022-07-29T10:29:28;32.70;57.30
2721;DHT22;1368;49.484;11.112;2022-07-29T10:35:09;32.70;57.10
2721;DHT22;1368;49.484;11.112;2022-07-29T10:40:37;33.90;56.60
2721;DHT22;1368;49.484;11.112;2022-07-29T10:43:32;34.40;55.50
2721;DHT22;1368;49.484;11.112;2022-07-29T10:46:02;34.80;56.00
2721;DHT22;1368;49.484;11.112;2022-07-29T10:48:28;35.20;55.10
2721;DHT22;1368;49.484;11.112;2022-07-29T10:50:59;35.40;54.80
2721;DHT22;1368;49.484;11.112;2022-07-29T10:56:28;35.20;55.30
2721;DHT22;1368;49.484;11.112;2022-07-29T11:01:56;35.10;54.80
2721;DHT22;1368;49.484;11.112;2022-07-29T11:07:11;33.40;57.60
2721;DHT22;1368;49.484;11.112;2022-07-29T11:09:37;34.00;56.80
2721;DHT22;1368;49.484;11.112;2022-07-29T11:12:45;34.40;56.30
2721;DHT22;1368;49.484;11.112;2022-07-29T11:14:58;34.40;56.40
2721;DHT22;1368;49.484;11.112;2022-07-29T11:17:24;34.10;56.90
2721;DHT22;1368;49.484;11.112;2022-07-29T11:19:50;34.00;57.30
2721;DHT22;1368;49.484;11.112;2022-07-29T11:22:34;33.80;57.70
2721;DHT22;1368;49.484;11.112;2022-07-29T11:25:16;34.00;56.70
2721;DHT22;1368;49.484;11.112;2022-07-29T11:27:43;33.60;57.60
2721;DHT22;1368;49.484;11.112;2022-07-29T11:30:09;33.30;58.50
2721;DHT22;1368;49.484;11.112;2022-07-29T11:32:40;33.20;59.00
2721;DHT22;1368;49.484;11.112;2022-07-29T11:35:20;33.90;58.50
2721;DHT22;1368;49.484;11.112;2022-07-29T11:40:32;34.40;57.80
2721;DHT22;1368;49.484;11.112;2022-07-29T11:42:58;34.80;57.10
2721;DHT22;1368;49.484;11.112;2022-07-29T11:45:25;35.00;56.40
2721;DHT22;1368;49.484;11.112;2022-07-29T11:47:56;34.40;56.70
2721;DHT22;1368;49.484;11.112;2022-07-29T11:52:54;33.10;58.60
2721;DHT22;1368;49.484;11.112;2022-07-29T11:55:21;32.70;60.40
2721;DHT22;1368;49.484;11.112;2022-07-29T11:57:51;32.80;59.70
2721;DHT22;1368;49.484;11.112;2022-07-29T12:02:55;32.60;59.50
2721;DHT22;1368;49.484;11.112;2022-07-29T12:05:29;33.20;59.10
2721;DHT22;1368;49.484;11.112;2022-07-29T12:07:55;34.00;58.20
2721;DHT22;1368;49.484;11.112;2022-07-29T12:10:20;34.40;57.70
2721;DHT22;1368;49.484;11.112;2022-07-29T12:12:51;33.60;57.40
2721;DHT22;1368;49.484;11.112;2022-07-29T12:15:18;33.10;56.80
2721;DHT22;1368;49.484;11.112;2022-07-29T12:17:47;33.20;56.30
2721;DHT22;1368;49.484;11.112;2022-07-29T12:20:13;33.30;57.00
2721;DHT22;1368;49.484;11.112;2022-07-29T12:22:42;33.90;56.50
2721;DHT22;1368;49.484;11.112;2022-07-29T12:25:13;34.30;54.60
2721;DHT22;1368;49.484;11.112;2022-07-29T12:27:44;34.40;54.90
2721;DHT22;1368;49.484;11.112;2022-07-29T12:30:14;34.90;55.30
2721;DHT22;1368;49.484;11.112;2022-07-29T12:32:44;34.90;54.40
2721;DHT22;1368;49.484;11.112;2022-07-29T12:35:12;35.20;54.90
2721;DHT22;1368;49.484;11.112;2022-07-29T12:37:41;35.50;54.00
2721;DHT22;1368;49.484;11.112;2022-07-29T12:40:09;35.40;53.00
2721;DHT22;1368;49.484;11.112;2022-07-29T12:42:35;35.20;54.10
2721;DHT22;1368;49.484;11.112;2022-07-29T12:45:01;35.40;53.10
2721;DHT22;1368;49.484;11.112;2022-07-29T12:47:28;35.60;51.90
2721;DHT22;1368;49.484;11.112;2022-07-29T12:50:13;35.10;52.50
2721;DHT22;1368;49.484;11.112;2022-07-29T12:52:40;35.00;51.80
2721;DHT22;1368;49.484;11.112;2022-07-29T12:55:06;34.30;53.00
2721;DHT22;1368;49.484;11.112;2022-07-29T12:57:35;34.40;53.80
2721;DHT22;1368;49.484;11.112;2022-07-29T13:00:11;34.50;53.80
2721;DHT22;1368;49.484;11.112;2022-07-29T13:02:39;34.40;53.60
2721;DHT22;1368;49.484;11.112;2022-07-29T13:05:07;34.60;53.20
2721;DHT22;1368;49.484;11.112;2022-07-29T13:07:34;34.90;53.70
2721;DHT22;1368;49.484;11.112;2022-07-29T13:12:39;35.30;53.00
2721;DHT22;1368;49.484;11.112;2022-07-29T13:15:14;35.80;52.90
2721;DHT22;1368;49.484;11.112;2022-07-29T13:17:44;35.50;53.30
2721;DHT22;1368;49.484;11.112;2022-07-29T13:20:11;35.60;52.50
2721;DHT22;1368;49.484;11.112;2022-07-29T13:22:41;35.30;52.60
2721;DHT22;1368;49.484;11.112;2022-07-29T13:25:08;35.10;53.00
2721;DHT22;1368;49.484;11.112;2022-07-29T13:27:36;34.70;53.80
2721;DHT22;1368;49.484;11.112;2022-07-29T13:30:05;33.90;54.10
2721;DHT22;1368;49.484;11.112;2022-07-29T13:32:31;33.20;55.10
2721;DHT22;1368;49.484;11.112;2022-07-29T13:35:00;33.00;55.40
2721;DHT22;1368;49.484;11.112;2022-07-29T13:37:27;33.10;55.80
2721;DHT22;1368;49.484;11.112;2022-07-29T13:39:55;32.60;58.50
2721;DHT22;1368;49.484;11.112;2022-07-29T13:42:22;31.60;58.20
2721;DHT22;1368;49.484;11.112;2022-07-29T13:44:47;30.70;60.00
2721;DHT22;1368;49.484;11.112;2022-07-29T13:47:16;29.90;62.20
2721;DHT22;1368;49.484;11.112;2022-07-29T13:49:41;29.00;64.70
2721;DHT22;1368;49.484;11.112;2022-07-29T13:52:07;28.70;65.90
2721;DHT22;1368;49.484;11.112;2022-07-29T13:54:33;28.40;66.90
2721;DHT22;1368;49.484;11.112;2022-07-29T13:57:01;27.90;68.50
2721;DHT22;1368;49.484;11.112;2022-07-29T13:59:26;27.10;71.10
2721;DHT22;1368;49.484;11.112;2022-07-29T14:01:52;26.50;72.40
2721;DHT22;1368;49.484;11.112;2022-07-29T14:04:17;25.90;74.50
2721;DHT22;1368;49.484;11.112;2022-07-29T14:06:43;25.70;76.00
2721;DHT22;1368;49.484;11.112;2022-07-29T14:09:09;25.70;76.50
2721;DHT22;1368;49.484;11.112;2022-07-29T14:11:35;25.70;77.00
2721;DHT22;1368;49.484;11.112;2022-07-29T14:14:01;25.60;77.90
2721;DHT22;1368;49.484;11.112;2022-07-29T14:16:27;25.70;77.90
2721;DHT22;1368;49.484;11.112;2022-07-29T14:18:52;25.70;78.70
2721;DHT22;1368;49.484;11.112;2022-07-29T14:21:18;25.70;79.70
2721;DHT22;1368;49.484;11.112;2022-07-29T14:23:43;25.70;80.80
2721;DHT22;1368;49.484;11.112;2022-07-29T14:26:09;25.60;83.00
2721;DHT22;1368;49.484;11.112;2022-07-29T14:28:35;25.30;84.30
2721;DHT22;1368;49.484;11.112;2022-07-29T14:31:00;25.30;86.00
2721;DHT22;1368;49.484;11.112;2022-07-29T14:33:26;25.20;87.70
2721;DHT22;1368;49.484;11.112;2022-07-29T14:35:51;25.30;88.90
2721;DHT22;1368;49.484;11.112;2022-07-29T14:38:17;25.30;90.10
2721;DHT22;1368;49.484;11.112;2022-07-29T14:40:42;25.20;90.90
2721;DHT22;1368;49.484;11.112;2022-07-29T14:43:08;24.80;91.80
2721;DHT22;1368;49.484;11.112;2022-07-29T14:45:33;24.70;92.90
2721;DHT22;1368;49.484;11.112;2022-07-29T14:47:59;24.70;93.20
2721;DHT22;1368;49.484;11.112;2022-07-29T14:50:25;24.80;93.50
2721;DHT22;1368;49.484;11.112;2022-07-29T14:52:52;24.90;93.70
2721;DHT22;1368;49.484;11.112;2022-07-29T14:55:17;25.40;93.30
2721;DHT22;1368;49.484;11.112;2022-07-29T14:57:43;25.80;92.60
2721;DHT22;1368;49.484;11.112;2022-07-29T15:00:09;26.20;91.10
2721;DHT22;1368;49.484;11.112;2022-07-29T15:02:35;26.60;91.20
2721;DHT22;1368;49.484;11.112;2022-07-29T15:05:01;26.70;92.90
2721;DHT22;1368;49.484;11.112;2022-07-29T15:07:27;26.30;93.80
2721;DHT22;1368;49.484;11.112;2022-07-29T15:09:53;26.10;94.50
2721;DHT22;1368;49.484;11.112;2022-07-29T15:12:19;26.10;94.20
2721;DHT22;1368;49.484;11.112;2022-07-29T15:14:44;25.80;94.80
2721;DHT22;1368;49.484;11.112;2022-07-29T15:17:10;25.70;95.20
2721;DHT22;1368;49.484;11.112;2022-07-29T15:19:35;25.70;94.90
2721;DHT22;1368;49.484;11.112;2022-07-29T15:22:01;25.50;95.10
2721;DHT22;1368;49.484;11.112;2022-07-29T15:24:27;25.60;95.40
2721;DHT22;1368;49.484;11.112;2022-07-29T15:26:52;25.70;94.50
2721;DHT22;1368;49.484;11.112;2022-07-29T15:29:18;25.70;94.90
2721;DHT22;1368;49.484;11.112;2022-07-29T15:31:44;25.60;95.10
2721;DHT22;1368;49.484;11.112;2022-07-29T15:34:09;25.30;96.00
2721;DHT22;1368;49.484;11.112;2022-07-29T15:36:35;24.90;97.30
2721;DHT22;1368;49.484;11.112;2022-07-29T15:39:00;24.20;99.20
2721;DHT22;1368;49.484;11.112;2022-07-29T15:41:26;23.90;99.90
2721;DHT22;1368;49.484;11.112;2022-07-29T15:43:52;23.80;99.90
2721;DHT22;1368;49.484;11.112;2022-07-29T15:46:18;23.80;99.90
2721;DHT22;1368;49.484;11.112;2022-07-29T15:49:04;23.70;99.90
2721;DHT22;1368;49.484;11.112;2022-07-29T15:51:30;23.70;99.90
2721;DHT22;1368;49.484;11.112;2022-07-29T15:53:56;23.80;99.90
2721;DHT22;1368;49.484;11.112;2022-07-29T15:56:22;23.90;99.90
2721;DHT22;1368;49.484;11.112;2022-07-29T15:58:49;23.80;99.90
2721;DHT22;1368;49.484;11.112;2022-07-29T16:01:15;23.60;99.90
2721;DHT22;1368;49.484;11.112;2022-07-29T16:03:41;23.60;99.90
2721;DHT22;1368;49.484;11.112;2022-07-29T16:06:06;23.60;99.90
2721;DHT22;1368;49.484;11.112;2022-07-29T16:08:32;23.50;99.90
2721;DHT22;1368;49.484;11.112;2022-07-29T16:10:57;23.20;99.90
2721;DHT22;1368;49.484;11.112;2022-07-29T16:13:23;22.70;99.90
2721;DHT22;1368;49.484;11.112;2022-07-29T16:15:49;22.20;99.90
2721;DHT22;1368;49.484;11.112;2022-07-29T16:18:14;22.10;99.90
2721;DHT22;1368;49.484;11.112;2022-07-29T16:20:40;22.20;99.90
2721;DHT22;1368;49.484;11.112;2022-07-29T16:23:07;22.20;99.90
2721;DHT22;1368;49.484;11.112;2022-07-29T16:25:38;22.20;99.90
2721;DHT22;1368;49.484;11.112;2022-07-29T16:28:04;22.10;99.90
2721;DHT22;1368;49.484;11.112;2022-07-29T16:30:30;22.10;99.90